createdAt,value
2023-05-06T00:00:09.931Z,11.8
2023-05-06T00:03:10.361Z,11.9
2023-05-06T00:06:09.630Z,11.9
2023-05-06T00:09:09.629Z,11.9
2023-05-06T00:12:09.988Z,11.9
2023-05-06T00:15:10.296Z,11.9
2023-05-06T00:18:10.206Z,11.9
2023-05-06T00:21:09.727Z,11.9
2023-05-06T00:24:09.778Z,11.9
2023-05-06T00:27:09.707Z,11.9
2023-05-06T00:30:09.887Z,11.9
2023-05-06T00:33:10.104Z,11.9
2023-05-06T00:36:09.705Z,11.9
2023-05-06T00:39:09.697Z,11.8
2023-05-06T00:42:09.684Z,11.8
2023-05-06T00:45:10.369Z,11.8
2023-05-06T00:48:10.207Z,11.8
2023-05-06T00:51:09.784Z,11.7
2023-05-06T00:54:09.713Z,11.7
2023-05-06T00:57:09.669Z,11.6
2023-05-06T01:00:10.034Z,11.6
2023-05-06T01:03:10.413Z,11.6
2023-05-06T01:06:09.709Z,11.6
2023-05-06T01:09:09.619Z,11.6
2023-05-06T01:12:09.690Z,11.6
2023-05-06T01:15:10.693Z,11.6
2023-05-06T01:18:10.146Z,11.6
2023-05-06T01:21:09.688Z,11.6
2023-05-06T01:24:10.093Z,11.6
2023-05-06T01:27:09.719Z,11.6
2023-05-06T01:30:09.762Z,11.6
2023-05-06T01:33:09.871Z,11.6
2023-05-06T01:36:09.671Z,11.6
2023-05-06T01:39:09.761Z,11.7
2023-05-06T01:42:09.750Z,11.6
2023-05-06T01:45:10.269Z,11.7
2023-05-06T01:48:10.051Z,11.7
2023-05-06T01:51:09.670Z,11.7
2023-05-06T01:54:09.690Z,11.7
2023-05-06T01:57:09.696Z,11.7
2023-05-06T02:00:09.813Z,11.8
2023-05-06T02:03:10.457Z,11.8
2023-05-06T02:06:09.788Z,11.8
2023-05-06T02:09:09.643Z,11.8
2023-05-06T02:12:09.813Z,11.8
2023-05-06T02:15:10.400Z,11.8
2023-05-06T02:18:10.902Z,11.8
2023-05-06T02:21:09.705Z,11.8
2023-05-06T02:24:09.727Z,11.7
2023-05-06T02:27:09.745Z,11.7
2023-05-06T02:30:09.762Z,11.6
2023-05-06T02:33:10.102Z,11.6
2023-05-06T02:36:09.758Z,11.6
2023-05-06T02:39:09.758Z,11.6
2023-05-06T02:42:09.677Z,11.6
2023-05-06T02:45:10.408Z,11.6
2023-05-06T02:48:10.030Z,11.6
2023-05-06T02:51:09.688Z,11.5
2023-05-06T02:54:09.759Z,11.5
2023-05-06T02:57:09.689Z,11.4
2023-05-06T03:00:09.742Z,11.4
2023-05-06T03:03:10.059Z,11.4
2023-05-06T03:06:09.816Z,11.4
2023-05-06T03:09:09.726Z,11.4
2023-05-06T03:12:09.590Z,11.4
2023-05-06T03:15:09.972Z,11.4
2023-05-06T03:18:10.014Z,11.4
2023-05-06T03:21:09.892Z,11.3
2023-05-06T03:24:09.851Z,11.3
2023-05-06T03:27:09.697Z,11.3
2023-05-06T03:30:09.969Z,11.3
2023-05-06T03:33:10.021Z,11.3
2023-05-06T03:36:09.686Z,11.3
2023-05-06T03:39:09.688Z,11.3
2023-05-06T03:42:13.420Z,11.2
2023-05-06T03:45:10.040Z,11.1
2023-05-06T03:48:10.195Z,11.1
2023-05-06T03:51:09.866Z,11.1
2023-05-06T03:54:09.689Z,11
2023-05-06T03:57:09.708Z,10.9
2023-05-06T04:00:10.039Z,10.9
2023-05-06T04:03:10.353Z,10.9
2023-05-06T04:06:09.728Z,10.9
2023-05-06T04:09:09.673Z,10.9
2023-05-06T04:12:09.799Z,10.9
2023-05-06T04:15:10.183Z,10.9
2023-05-06T04:18:10.126Z,10.9
2023-05-06T04:21:09.723Z,10.8
2023-05-06T04:24:09.752Z,10.9
2023-05-06T04:27:09.621Z,10.9
2023-05-06T04:30:09.883Z,10.9
2023-05-06T04:33:10.026Z,10.9
2023-05-06T04:36:09.684Z,10.9
2023-05-06T04:39:09.648Z,10.9
2023-05-06T04:42:09.740Z,10.9
2023-05-06T04:45:10.224Z,10.9
2023-05-06T04:48:10.029Z,10.9
2023-05-06T04:51:09.582Z,11
2023-05-06T04:54:09.698Z,11
2023-05-06T04:57:09.642Z,11
2023-05-06T05:00:10.494Z,11
2023-05-06T05:03:10.424Z,11
2023-05-06T05:06:09.691Z,11
2023-05-06T05:09:09.625Z,11.1
2023-05-06T05:12:09.809Z,11.1
2023-05-06T05:15:10.129Z,11.1
2023-05-06T05:18:10.080Z,11.2
2023-05-06T05:21:09.719Z,11.3
2023-05-06T05:24:09.692Z,11.3
2023-05-06T05:27:09.744Z,11.4
2023-05-06T05:30:09.950Z,11.4
2023-05-06T05:33:10.228Z,11.5
2023-05-06T05:36:09.809Z,11.5
2023-05-06T05:39:09.797Z,11.6
2023-05-06T05:42:09.671Z,11.6
2023-05-06T05:45:10.078Z,11.6
2023-05-06T05:48:09.968Z,11.7
2023-05-06T05:51:09.650Z,11.7
2023-05-06T05:54:09.952Z,11.8
2023-05-06T05:57:09.769Z,11.8
2023-05-06T06:00:11.070Z,11.8
2023-05-06T06:03:10.585Z,11.7
2023-05-06T06:06:09.656Z,11.7
2023-05-06T06:09:09.650Z,11.6
2023-05-06T06:12:09.674Z,11.6
2023-05-06T06:15:10.044Z,11.5
2023-05-06T06:18:10.131Z,11.4
2023-05-06T06:21:09.699Z,11.4
2023-05-06T06:24:09.653Z,11.3
2023-05-06T06:27:09.665Z,11.4
2023-05-06T06:30:09.788Z,11.4
2023-05-06T06:33:09.998Z,11.5
2023-05-06T06:36:09.663Z,11.6
2023-05-06T06:39:09.799Z,11.6
2023-05-06T06:42:09.669Z,11.7
2023-05-06T06:45:10.247Z,11.8
2023-05-06T06:48:10.073Z,11.8
2023-05-06T06:51:09.607Z,11.8
2023-05-06T06:54:09.592Z,11.8
2023-05-06T06:57:09.685Z,11.8
2023-05-06T07:00:10.520Z,11.8
2023-05-06T07:03:10.080Z,11.9
2023-05-06T07:06:09.646Z,11.9
2023-05-06T07:09:09.633Z,11.9
2023-05-06T07:12:09.682Z,11.9
2023-05-06T07:15:10.093Z,11.9
2023-05-06T07:18:10.072Z,11.9
2023-05-06T07:21:09.697Z,12.1
2023-05-06T07:24:09.624Z,12.2
2023-05-06T07:27:09.702Z,12.6
2023-05-06T07:30:09.649Z,12.6
2023-05-06T07:33:10.091Z,12.9
2023-05-06T07:36:09.658Z,13.1
2023-05-06T07:39:09.823Z,13.4
2023-05-06T07:42:09.643Z,13.4
2023-05-06T07:45:09.846Z,13.4
2023-05-06T07:48:10.054Z,13.4
2023-05-06T07:51:09.685Z,13.5
2023-05-06T07:54:09.731Z,13.8
2023-05-06T07:57:09.720Z,14.1
2023-05-06T08:00:09.621Z,14.2
2023-05-06T08:03:10.437Z,14.3
2023-05-06T08:06:09.680Z,14.3
2023-05-06T08:09:11.352Z,14.5
2023-05-06T08:12:09.730Z,14.7
2023-05-06T08:15:10.027Z,15.1
2023-05-06T08:18:31.363Z,15.7
2023-05-06T08:21:09.680Z,16.3
2023-05-06T08:24:09.657Z,16.2
2023-05-06T08:27:09.640Z,16.1
2023-05-06T08:30:09.764Z,15.9
2023-05-06T08:33:09.968Z,16.1
2023-05-06T08:36:09.630Z,15.8
2023-05-06T08:39:09.671Z,15.6
2023-05-06T08:42:09.687Z,15.6
2023-05-06T08:45:10.085Z,15.4
2023-05-06T08:48:09.863Z,15.5
2023-05-06T08:51:09.687Z,16.1
2023-05-06T08:54:09.976Z,16.9
2023-05-06T08:57:11.682Z,16.9
2023-05-06T09:00:09.727Z,17.1
2023-05-06T09:03:10.227Z,17.2
2023-05-06T09:06:09.672Z,16.8
2023-05-06T09:09:09.703Z,17.4
2023-05-06T09:12:09.696Z,18.7
2023-05-06T09:15:09.949Z,19.6
2023-05-06T09:18:10.102Z,19.3
2023-05-06T09:21:09.984Z,18.3
2023-05-06T09:24:09.736Z,17.2
2023-05-06T09:27:13.911Z,17.6
2023-05-06T09:30:09.936Z,18.8
2023-05-06T09:33:10.103Z,19.9
2023-05-06T09:36:09.657Z,21.2
2023-05-06T09:39:09.818Z,20.9
2023-05-06T09:42:09.596Z,20.8
2023-05-06T09:45:11.719Z,19.7
2023-05-06T09:48:10.316Z,18.9
2023-05-06T09:51:10.267Z,18.2
2023-05-06T09:54:09.869Z,18.4
2023-05-06T09:57:10.168Z,19.3
2023-05-06T10:00:09.773Z,20.9
2023-05-06T10:03:10.778Z,21.8
2023-05-06T10:06:09.967Z,21.2
2023-05-06T10:09:09.789Z,20.6
2023-05-06T10:12:09.588Z,19.9
2023-05-06T10:15:09.904Z,19.2
2023-05-06T10:18:10.019Z,19
2023-05-06T10:21:09.625Z,18.4
2023-05-06T10:24:09.706Z,19.8
2023-05-06T10:27:09.635Z,21.2
2023-05-06T10:30:09.857Z,22
2023-05-06T10:33:10.256Z,22.9
2023-05-06T10:36:09.741Z,22.4
2023-05-06T10:39:09.902Z,21.2
2023-05-06T10:42:09.611Z,21.5
2023-05-06T10:45:10.004Z,22
2023-05-06T10:48:09.762Z,21.5
2023-05-06T10:51:09.687Z,21.5
2023-05-06T10:54:09.764Z,21.5
2023-05-06T10:57:09.670Z,21.1
2023-05-06T11:00:09.839Z,20.2
2023-05-06T11:03:10.436Z,19.9
2023-05-06T11:06:09.663Z,19.7
2023-05-06T11:09:09.662Z,19
2023-05-06T11:12:09.622Z,19.6
2023-05-06T11:15:09.840Z,20.9
2023-05-06T11:18:09.934Z,21.7
2023-05-06T11:21:10.176Z,21.9
2023-05-06T11:24:09.666Z,21.9
2023-05-06T11:27:09.599Z,21.4
2023-05-06T11:30:09.901Z,20.5
2023-05-06T11:33:13.940Z,19.4
2023-05-06T11:36:09.806Z,19.4
2023-05-06T11:39:13.806Z,19.3
2023-05-06T11:42:09.705Z,19.9
2023-05-06T11:45:09.703Z,20.3
2023-05-06T11:48:09.972Z,20.9
2023-05-06T11:51:09.718Z,20.9
2023-05-06T11:54:09.642Z,20.1
2023-05-06T11:57:09.803Z,19.3
2023-05-06T12:00:10.110Z,18.8
2023-05-06T12:03:10.064Z,18.9
2023-05-06T12:06:09.668Z,20
2023-05-06T12:09:09.778Z,21.3
2023-05-06T12:12:09.691Z,22.1
2023-05-06T12:15:09.697Z,22.3
2023-05-06T12:18:10.013Z,21.7
2023-05-06T12:21:09.697Z,21
2023-05-06T12:24:09.962Z,20.1
2023-05-06T12:27:09.616Z,19.5
2023-05-06T12:30:09.880Z,19.1
2023-05-06T12:33:10.166Z,18.7
2023-05-06T12:36:09.746Z,18.4
2023-05-06T12:39:09.907Z,18.4
2023-05-06T12:42:09.617Z,18.3
2023-05-06T12:45:09.655Z,18.5
2023-05-06T12:48:10.098Z,18.6
2023-05-06T12:51:09.696Z,18.6
2023-05-06T12:54:09.662Z,18.6
2023-05-06T12:57:09.724Z,18.7
2023-05-06T13:00:10.181Z,19
2023-05-06T13:03:10.351Z,18.9
2023-05-06T13:06:09.769Z,19.2
2023-05-06T13:09:09.701Z,19.4
2023-05-06T13:12:09.726Z,19.7
2023-05-06T13:15:09.755Z,19.3
2023-05-06T13:18:09.994Z,18.8
2023-05-06T13:21:09.765Z,18.6
2023-05-06T13:24:09.723Z,18.8
2023-05-06T13:27:10.155Z,18.9
2023-05-06T13:30:09.916Z,19.5
2023-05-06T13:33:09.884Z,19.2
2023-05-06T13:36:12.799Z,18.7
2023-05-06T13:39:09.848Z,18.5
2023-05-06T13:42:12.912Z,18.3
2023-05-06T13:45:09.682Z,18.1
2023-05-06T13:48:10.070Z,17.6
2023-05-06T13:51:09.650Z,17.6
2023-05-06T13:54:09.601Z,17.8
2023-05-06T13:57:09.701Z,18.3
2023-05-06T14:00:10.229Z,19.3
2023-05-06T14:03:10.211Z,19.9
2023-05-06T14:06:09.739Z,20.7
2023-05-06T14:09:09.674Z,21
2023-05-06T14:12:09.686Z,20.6
2023-05-06T14:15:10.135Z,19.5
2023-05-06T14:18:10.076Z,19
2023-05-06T14:21:09.723Z,18.5
2023-05-06T14:24:12.462Z,18.4
2023-05-06T14:27:10.124Z,18.7
2023-05-06T14:30:12.985Z,18.6
2023-05-06T14:33:10.045Z,18.6
2023-05-06T14:36:09.635Z,18.8
2023-05-06T14:39:09.734Z,19.2
2023-05-06T14:42:09.743Z,18.9
2023-05-06T14:45:09.824Z,18.6
2023-05-06T14:48:10.171Z,18.2
2023-05-06T14:51:09.659Z,17.9
2023-05-06T14:54:09.680Z,17.6
2023-05-06T14:57:09.680Z,17.6
2023-05-06T15:00:10.303Z,17.7
2023-05-06T15:03:10.047Z,17.7
2023-05-06T15:06:10.479Z,17.2
2023-05-06T15:09:09.686Z,16.8
2023-05-06T15:12:09.598Z,16.8
2023-05-06T15:15:10.350Z,16.8
2023-05-06T15:18:10.241Z,16.9
2023-05-06T15:21:09.698Z,16.9
2023-05-06T15:24:09.544Z,16.8
2023-05-06T15:27:09.713Z,16.9
2023-05-06T15:30:09.741Z,17.1
2023-05-06T15:33:10.004Z,17.1
2023-05-06T15:36:09.795Z,17
2023-05-06T15:39:09.992Z,17.2
2023-05-06T15:42:09.833Z,17.2
2023-05-06T15:45:09.925Z,17.4
2023-05-06T15:48:09.935Z,17.2
2023-05-06T15:51:09.747Z,17.1
2023-05-06T15:57:14.891Z,16.9
2023-05-06T16:00:09.972Z,16.8
2023-05-06T16:03:14.847Z,16.6
2023-05-06T16:06:10.904Z,16.3
2023-05-06T16:09:09.952Z,16.3
2023-05-06T16:12:09.659Z,16.3
2023-05-06T16:15:09.734Z,16
2023-05-06T16:18:10.059Z,15.9
2023-05-06T16:21:09.702Z,15.9
2023-05-06T16:24:09.753Z,15.8
2023-05-06T16:27:09.656Z,15.8
2023-05-06T16:30:10.004Z,15.7
2023-05-06T16:33:10.113Z,15.5
2023-05-06T16:36:10.023Z,15.2
2023-05-06T16:39:09.627Z,15
2023-05-06T16:42:09.672Z,14.8
2023-05-06T16:45:09.722Z,14.7
2023-05-06T16:48:10.315Z,14.6
2023-05-06T16:51:09.658Z,14.6
2023-05-06T16:54:09.629Z,14.3
2023-05-06T16:57:09.668Z,14.3
2023-05-06T17:00:10.092Z,14.3
2023-05-06T17:03:10.958Z,14.2
2023-05-06T17:06:09.971Z,14.1
2023-05-06T17:09:09.648Z,14
2023-05-06T17:12:09.663Z,13.9
2023-05-06T17:15:09.703Z,13.9
2023-05-06T17:18:10.110Z,13.8
2023-05-06T17:21:09.736Z,13.6
2023-05-06T17:24:09.681Z,13.7
2023-05-06T17:27:10.529Z,13.8
2023-05-06T17:30:09.906Z,13.8
2023-05-06T17:33:09.871Z,13.9
2023-05-06T17:36:09.657Z,13.9
2023-05-06T17:39:09.735Z,13.8
2023-05-06T17:42:09.698Z,13.6
2023-05-06T17:45:09.811Z,13.4
2023-05-06T17:48:10.026Z,13.3
2023-05-06T17:51:09.680Z,13.1
2023-05-06T17:54:09.675Z,13
2023-05-06T17:57:09.642Z,12.9
2023-05-06T18:00:09.748Z,12.8
2023-05-06T18:03:10.278Z,12.6
2023-05-06T18:06:09.817Z,12.6
2023-05-06T18:09:09.591Z,12.5
2023-05-06T18:12:09.708Z,12.4
2023-05-06T18:15:10.061Z,12.4
2023-05-06T18:18:10.111Z,12.3
2023-05-06T18:21:09.637Z,12.3
2023-05-06T18:24:24.861Z,12.2
2023-05-06T18:27:09.668Z,12
2023-05-06T18:30:09.989Z,12
2023-05-06T18:33:09.958Z,11.9
2023-05-06T18:36:09.716Z,11.8
2023-05-06T18:39:09.668Z,11.8
2023-05-06T18:42:09.694Z,11.7
2023-05-06T18:45:10.146Z,11.7
2023-05-06T18:48:10.038Z,11.6
2023-05-06T18:51:09.639Z,11.6
2023-05-06T18:54:09.640Z,11.6
2023-05-06T18:57:10.054Z,11.5
2023-05-06T19:00:09.718Z,11.4
2023-05-06T19:03:09.942Z,11.4
2023-05-06T19:06:09.704Z,11.3
2023-05-06T19:09:09.690Z,11.3
2023-05-06T19:12:09.655Z,11.1
2023-05-06T19:15:09.911Z,11.1
2023-05-06T19:18:10.631Z,11
2023-05-06T19:21:09.670Z,10.9
2023-05-06T19:24:09.740Z,10.9
2023-05-06T19:27:09.613Z,10.8
2023-05-06T19:30:09.795Z,10.8
2023-05-06T19:33:09.985Z,10.7
2023-05-06T19:36:09.688Z,10.6
2023-05-06T19:39:09.745Z,10.6
2023-05-06T19:42:09.709Z,10.5
2023-05-06T19:45:10.112Z,10.4
2023-05-06T19:48:09.922Z,10.4
2023-05-06T19:51:09.650Z,10.4
2023-05-06T19:54:09.620Z,10.3
2023-05-06T19:57:09.760Z,10.2
2023-05-06T20:00:10.405Z,10.1
2023-05-06T20:03:10.486Z,10.1
2023-05-06T20:06:10.580Z,10
2023-05-06T20:09:09.774Z,9.9
2023-05-06T20:12:09.693Z,9.9
2023-05-06T20:15:09.956Z,9.9
2023-05-06T20:18:10.199Z,9.9
2023-05-06T20:21:09.836Z,9.9
2023-05-06T20:24:09.724Z,9.8
2023-05-06T20:27:09.681Z,9.8
2023-05-06T20:30:10.128Z,9.8
2023-05-06T20:33:10.261Z,9.8
2023-05-06T20:36:09.669Z,9.8
2023-05-06T20:39:09.829Z,9.8
2023-05-06T20:42:11.667Z,9.8
2023-05-06T20:45:10.419Z,9.7
2023-05-06T20:48:10.589Z,9.7
2023-05-06T20:51:09.736Z,9.7
2023-05-06T20:54:10.178Z,9.6
2023-05-06T20:57:09.721Z,9.6
2023-05-06T21:00:09.820Z,9.6
2023-05-06T21:03:10.433Z,9.6
2023-05-06T21:06:09.694Z,9.6
2023-05-06T21:09:09.663Z,9.5
2023-05-06T21:12:09.705Z,9.5
2023-05-06T21:15:09.980Z,9.6
2023-05-06T21:18:10.270Z,9.6
2023-05-06T21:21:09.714Z,9.5
2023-05-06T21:24:09.691Z,9.4
2023-05-06T21:27:09.679Z,9.4
2023-05-06T21:30:09.845Z,9.4
2023-05-06T21:33:09.904Z,9.4
2023-05-06T21:36:09.708Z,9.4
2023-05-06T21:39:09.781Z,9.3
2023-05-06T21:42:09.717Z,9.3
2023-05-06T21:45:10.084Z,9.3
2023-05-06T21:48:09.980Z,9.3
2023-05-06T21:51:09.711Z,9.3
2023-05-06T21:54:09.741Z,9.3
2023-05-06T21:57:09.733Z,9.2
2023-05-06T22:00:10.611Z,9.1
2023-05-06T22:03:10.418Z,9.1
2023-05-06T22:06:09.734Z,9.1
2023-05-06T22:09:09.992Z,9.1
2023-05-06T22:12:09.683Z,9
2023-05-06T22:15:09.882Z,9
2023-05-06T22:18:10.177Z,9
2023-05-06T22:21:09.942Z,8.9
2023-05-06T22:24:09.685Z,8.9
2023-05-06T22:27:09.688Z,8.9
2023-05-06T22:30:09.788Z,8.9
2023-05-06T22:33:10.050Z,8.9
2023-05-06T22:36:09.724Z,9
2023-05-06T22:39:09.710Z,8.9
2023-05-06T22:42:10.124Z,9
2023-05-06T22:45:09.788Z,9
2023-05-06T22:48:10.105Z,9
2023-05-06T22:51:09.563Z,9
2023-05-06T22:54:09.755Z,9
2023-05-06T22:57:09.807Z,9.1
2023-05-06T23:00:10.005Z,9.1
2023-05-06T23:03:10.035Z,9
2023-05-06T23:06:09.687Z,9.1
2023-05-06T23:09:09.722Z,9
2023-05-06T23:12:09.707Z,8.9
2023-05-06T23:15:09.824Z,8.9
2023-05-06T23:18:10.155Z,8.9
2023-05-06T23:21:09.828Z,8.9
2023-05-06T23:24:09.674Z,8.9
2023-05-06T23:27:09.629Z,8.8
2023-05-06T23:30:09.675Z,8.9
2023-05-06T23:33:10.053Z,8.8
2023-05-06T23:36:09.803Z,8.9
2023-05-06T23:39:09.799Z,8.8
2023-05-06T23:42:09.782Z,8.9
2023-05-06T23:45:09.970Z,8.9
2023-05-06T23:48:10.149Z,8.9
2023-05-06T23:51:09.718Z,8.8
2023-05-06T23:54:09.635Z,8.8
2023-05-06T23:57:09.830Z,8.9
